METAR AND TAF INFORMATION
METAR FOR MMTJ
ADDS - METARS form results

(1939 UTC 26 April 2018)
Data provider http://aviationweather.gov/adds/metars/
 
METAR text: MMTJ 261846Z 24009KT 8SM BKN200 19/11 A3007 RMK 8/009 HZY ISOL CU
Conditions at: MMTJ (TIJUANA INTL ARP, MX) observed 1846 UTC 26 April 2018
Temperature: 19.0°C (66°F)
Dewpoint: 11.0°C (52°F) [RH = 60%]
Pressure (altimeter): 30.07 inches Hg (1018.4 mb)
Winds: from the WSW (240 degrees) at 10 MPH (9 knots; 4.7 m/s)
Visibility: 8 miles (13 km)
Ceiling: 20000 feet AGL
Clouds: broken clouds at 20000 feet AGL
Weather: no significant weather observed at this time

Forecast for: MMTJ (TIJUANA INTL ARP, MX)
Text: TAF MMTJ 261657Z 2618/2724 28010KT P6SM BKN025 TX20/2620Z TN14/2712Z
Forecast period: 1800 UTC 26 April 2018 to 0400 UTC 27 April 2018
Forecast type: FROM: standard forecast or significant change
Winds: from the W (280 degrees) at 12 MPH (10 knots; 5.2 m/s)
Visibility: 6 or more miles (10+ km)
Ceiling: 2500 feet AGL
Clouds: broken clouds at 2500 feet AGL
Weather: no significant weather forecast for this period
Forecast for: MMTJ (TIJUANA INTL ARP, MX)
Text: TAF MMTJ 261657Z 2618/2724 28010KT P6SM BKN025 TX20/2620Z TN14/2712Z
Forecast period: 1800 UTC 26 April 2018 to 0400 UTC 27 April 2018
Forecast type: FROM: standard forecast or significant change
Winds: from the W (280 degrees) at 12 MPH (10 knots; 5.2 m/s)
Visibility: 6 or more miles (10+ km)
Ceiling: 2500 feet AGL
Clouds: broken clouds at 2500 feet AGL
Weather: no significant weather forecast for this period
Forecast for: MMTJ (TIJUANA INTL ARP, MX)
Text: TAF MMTJ 261657Z 2618/2724 28010KT P6SM BKN025 TX20/2620Z TN14/2712Z
Forecast period: 0400 to 0900 UTC 27 April 2018
Forecast type: FROM: standard forecast or significant change
Winds: calm
Visibility: 5 miles (8 km)
Ceiling: 1500 feet AGL
Clouds: overcast cloud deck at 1500 feet AGL
Weather: HZ  (haze)
Forecast for: MMTJ (TIJUANA INTL ARP, MX)
Text: TAF MMTJ 261657Z 2618/2724 28010KT P6SM BKN025 TX20/2620Z TN14/2712Z
Forecast period: 0400 to 0900 UTC 27 April 2018
Forecast type: FROM: standard forecast or significant change
Winds: calm
Visibility: 5 miles (8 km)
Ceiling: 1500 feet AGL
Clouds: overcast cloud deck at 1500 feet AGL
Weather: HZ  (haze)
Forecast for: MMTJ (TIJUANA INTL ARP, MX)
Text: TAF MMTJ 261657Z 2618/2724 28010KT P6SM BKN025 TX20/2620Z TN14/2712Z
Forecast period: 0900 to 1800 UTC 27 April 2018
Forecast type: FROM: standard forecast or significant change
Winds: calm
Visibility: 4 miles (6 km)
Ceiling: 1000 feet AGL
Clouds: overcast cloud deck at 1000 feet AGL
Weather: HZ  (haze)
Forecast for: MMTJ (TIJUANA INTL ARP, MX)
Text: TAF MMTJ 261657Z 2618/2724 28010KT P6SM BKN025 TX20/2620Z TN14/2712Z
Forecast period: 0900 to 1800 UTC 27 April 2018
Forecast type: FROM: standard forecast or significant change
Winds: calm
Visibility: 4 miles (6 km)
Ceiling: 1000 feet AGL
Clouds: overcast cloud deck at 1000 feet AGL
Weather: HZ  (haze)
Forecast for: MMTJ (TIJUANA INTL ARP, MX)
Text: TAF MMTJ 261657Z 2618/2724 28010KT P6SM BKN025 TX20/2620Z TN14/2712Z
Forecast period: 1800 UTC 27 April 2018 to 0000 UTC 28 April 2018
Forecast type: FROM: standard forecast or significant change
Winds: from the W (280 degrees) at 12 MPH (10 knots; 5.2 m/s)
Visibility: 6 or more miles (10+ km)
Clouds: scattered clouds at 1500 feet AGL
Weather: no significant weather forecast for this period
Forecast for: MMTJ (TIJUANA INTL ARP, MX)
Text: TAF MMTJ 261657Z 2618/2724 28010KT P6SM BKN025 TX20/2620Z TN14/2712Z
Forecast period: 1800 UTC 27 April 2018 to 0000 UTC 28 April 2018
Forecast type: FROM: standard forecast or significant change
Winds: from the W (280 degrees) at 12 MPH (10 knots; 5.2 m/s)
Visibility: 6 or more miles (10+ km)
Clouds: scattered clouds at 1500 feet AGL
Weather: no significant weather forecast for this period

 AIRPORT MAP

 RUNWAY INFORMATION
Runway 09 Runway length 9711 ft Runway width 144 ft
Runway elevation 487 ft Runway displaced threshold 0 ft Runway heading 99
Runway 27 Runway length 9711 ft Runway width 144 ft
Runway elevation 487 ft Runway displaced threshold 0 ft Runway heading 279

 AIRPORT FREQUENCIES
Type APP Name TIJUANA AP Frequency 119.5 MHZ
Type ATIS Name ATIS Frequency 127.9 MHZ
Type CLD Name TIJUANA CL Frequency 122.35 MHZ
Type MISC Name TIJUANA IN Frequency 132.1 MHZ
Type TWR Name TIJUANA TW Frequency 118.1 MHZ

 AIRPORT NEAR NAVIGATION AIDS
Type VOR-DME Name Tijuana Frequency 116500 KHZ



v2.6.1